sensor_id;sensor_type;location;lat;lon;timestamp;P1;durP1;ratioP1;P2;durP2;ratioP2
49784;SDS011;35679;38.732;-121.358;2022-07-30T00:01:17;10.52;;;3.10;;
49784;SDS011;35679;38.732;-121.358;2022-07-30T00:04:07;8.40;;;3.22;;
49784;SDS011;35679;38.732;-121.358;2022-07-30T00:06:56;5.38;;;3.20;;
49784;SDS011;35679;38.732;-121.358;2022-07-30T00:09:47;5.10;;;2.97;;
49784;SDS011;35679;38.732;-121.358;2022-07-30T00:12:36;6.18;;;3.33;;
49784;SDS011;35679;38.732;-121.358;2022-07-30T00:15:28;3.60;;;2.88;;
49784;SDS011;35679;38.732;-121.358;2022-07-30T00:18:17;8.30;;;3.22;;
49784;SDS011;35679;38.732;-121.358;2022-07-30T00:21:08;3.83;;;3.25;;
49784;SDS011;35679;38.732;-121.358;2022-07-30T00:24:06;4.70;;;2.90;;
49784;SDS011;35679;38.732;-121.358;2022-07-30T00:26:56;4.68;;;3.35;;
49784;SDS011;35679;38.732;-121.358;2022-07-30T00:29:45;6.80;;;3.00;;
49784;SDS011;35679;38.732;-121.358;2022-07-30T00:32:35;5.68;;;2.85;;
49784;SDS011;35679;38.732;-121.358;2022-07-30T00:35:24;4.63;;;2.90;;
49784;SDS011;35679;38.732;-121.358;2022-07-30T00:38:14;4.63;;;3.20;;
49784;SDS011;35679;38.732;-121.358;2022-07-30T00:41:03;7.47;;;3.15;;
49784;SDS011;35679;38.732;-121.358;2022-07-30T00:43:52;5.70;;;2.97;;
49784;SDS011;35679;38.732;-121.358;2022-07-30T00:46:42;4.05;;;3.35;;
49784;SDS011;35679;38.732;-121.358;2022-07-30T00:49:31;4.50;;;3.20;;
49784;SDS011;35679;38.732;-121.358;2022-07-30T00:52:21;4.68;;;2.97;;
49784;SDS011;35679;38.732;-121.358;2022-07-30T00:55:11;4.57;;;3.10;;
49784;SDS011;35679;38.732;-121.358;2022-07-30T00:58:02;4.13;;;3.13;;
49784;SDS011;35679;38.732;-121.358;2022-07-30T01:00:52;6.22;;;3.45;;
49784;SDS011;35679;38.732;-121.358;2022-07-30T01:03:42;5.25;;;3.20;;
49784;SDS011;35679;38.732;-121.358;2022-07-30T01:06:32;4.22;;;3.08;;
49784;SDS011;35679;38.732;-121.358;2022-07-30T01:09:21;7.63;;;3.00;;
49784;SDS011;35679;38.732;-121.358;2022-07-30T01:12:11;5.40;;;3.35;;
49784;SDS011;35679;38.732;-121.358;2022-07-30T01:15:06;3.72;;;3.15;;
49784;SDS011;35679;38.732;-121.358;2022-07-30T01:20:59;3.15;;;2.83;;
49784;SDS011;35679;38.732;-121.358;2022-07-30T01:23:56;4.38;;;3.58;;
49784;SDS011;35679;38.732;-121.358;2022-07-30T01:26:53;3.30;;;2.83;;
49784;SDS011;35679;38.732;-121.358;2022-07-30T01:29:45;4.90;;;3.45;;
49784;SDS011;35679;38.732;-121.358;2022-07-30T01:32:39;3.33;;;3.03;;
49784;SDS011;35679;38.732;-121.358;2022-07-30T01:35:32;5.00;;;3.03;;
49784;SDS011;35679;38.732;-121.358;2022-07-30T01:38:23;5.50;;;3.25;;
49784;SDS011;35679;38.732;-121.358;2022-07-30T01:41:21;5.35;;;3.28;;
49784;SDS011;35679;38.732;-121.358;2022-07-30T01:44:12;3.40;;;3.10;;
49784;SDS011;35679;38.732;-121.358;2022-07-30T01:47:11;4.45;;;3.17;;
49784;SDS011;35679;38.732;-121.358;2022-07-30T01:50:03;5.55;;;3.10;;
49784;SDS011;35679;38.732;-121.358;2022-07-30T01:52:57;3.33;;;2.97;;
49784;SDS011;35679;38.732;-121.358;2022-07-30T01:55:48;3.88;;;3.45;;
49784;SDS011;35679;38.732;-121.358;2022-07-30T02:01:41;3.53;;;3.15;;
49784;SDS011;35679;38.732;-121.358;2022-07-30T02:04:31;4.80;;;3.00;;
49784;SDS011;35679;38.732;-121.358;2022-07-30T02:07:25;3.75;;;3.40;;
49784;SDS011;35679;38.732;-121.358;2022-07-30T02:10:35;5.25;;;3.28;;
49784;SDS011;35679;38.732;-121.358;2022-07-30T02:13:51;3.78;;;3.00;;
49784;SDS011;35679;38.732;-121.358;2022-07-30T02:16:45;4.00;;;2.95;;
49784;SDS011;35679;38.732;-121.358;2022-07-30T02:19:41;5.65;;;3.15;;
49784;SDS011;35679;38.732;-121.358;2022-07-30T02:22:33;4.72;;;3.35;;
49784;SDS011;35679;38.732;-121.358;2022-07-30T02:25:25;3.28;;;2.97;;
49784;SDS011;35679;38.732;-121.358;2022-07-30T02:28:17;4.90;;;3.25;;
49784;SDS011;35679;38.732;-121.358;2022-07-30T02:31:09;3.67;;;3.00;;
49784;SDS011;35679;38.732;-121.358;2022-07-30T02:34:05;4.47;;;3.20;;
49784;SDS011;35679;38.732;-121.358;2022-07-30T02:36:59;3.20;;;2.80;;
49784;SDS011;35679;38.732;-121.358;2022-07-30T02:39:50;4.25;;;3.03;;
49784;SDS011;35679;38.732;-121.358;2022-07-30T02:42:41;3.67;;;3.05;;
49784;SDS011;35679;38.732;-121.358;2022-07-30T02:45:37;3.38;;;2.83;;
49784;SDS011;35679;38.732;-121.358;2022-07-30T02:48:28;4.03;;;3.03;;
49784;SDS011;35679;38.732;-121.358;2022-07-30T02:51:22;2.90;;;2.70;;
49784;SDS011;35679;38.732;-121.358;2022-07-30T02:54:15;3.17;;;2.70;;
49784;SDS011;35679;38.732;-121.358;2022-07-30T02:57:07;3.45;;;2.90;;
49784;SDS011;35679;38.732;-121.358;2022-07-30T02:59:58;3.60;;;2.85;;
49784;SDS011;35679;38.732;-121.358;2022-07-30T03:02:49;3.67;;;2.53;;
49784;SDS011;35679;38.732;-121.358;2022-07-30T03:05:43;2.72;;;2.53;;
49784;SDS011;35679;38.732;-121.358;2022-07-30T03:08:34;2.70;;;2.50;;
49784;SDS011;35679;38.732;-121.358;2022-07-30T03:11:25;2.90;;;2.70;;
49784;SDS011;35679;38.732;-121.358;2022-07-30T03:14:16;4.15;;;2.88;;
49784;SDS011;35679;38.732;-121.358;2022-07-30T03:17:06;3.33;;;2.80;;
49784;SDS011;35679;38.732;-121.358;2022-07-30T03:19:56;5.20;;;2.70;;
49784;SDS011;35679;38.732;-121.358;2022-07-30T03:22:49;2.75;;;2.42;;
49784;SDS011;35679;38.732;-121.358;2022-07-30T03:25:41;2.70;;;2.45;;
49784;SDS011;35679;38.732;-121.358;2022-07-30T03:28:33;3.80;;;2.58;;
49784;SDS011;35679;38.732;-121.358;2022-07-30T03:31:26;4.10;;;2.60;;
49784;SDS011;35679;38.732;-121.358;2022-07-30T03:34:22;2.90;;;2.60;;
49784;SDS011;35679;38.732;-121.358;2022-07-30T03:40:05;3.10;;;2.40;;
49784;SDS011;35679;38.732;-121.358;2022-07-30T03:42:56;3.65;;;2.67;;
49784;SDS011;35679;38.732;-121.358;2022-07-30T03:45:46;3.47;;;2.80;;
49784;SDS011;35679;38.732;-121.358;2022-07-30T03:48:39;3.22;;;2.60;;
49784;SDS011;35679;38.732;-121.358;2022-07-30T03:51:30;3.00;;;2.70;;
49784;SDS011;35679;38.732;-121.358;2022-07-30T03:54:23;2.80;;;2.50;;
49784;SDS011;35679;38.732;-121.358;2022-07-30T03:57:42;5.13;;;2.80;;
49784;SDS011;35679;38.732;-121.358;2022-07-30T04:00:31;2.50;;;2.30;;
49784;SDS011;35679;38.732;-121.358;2022-07-30T04:03:24;2.42;;;2.22;;
49784;SDS011;35679;38.732;-121.358;2022-07-30T04:06:22;3.10;;;2.60;;
49784;SDS011;35679;38.732;-121.358;2022-07-30T04:09:12;2.83;;;2.50;;
49784;SDS011;35679;38.732;-121.358;2022-07-30T04:12:02;2.55;;;2.33;;
49784;SDS011;35679;38.732;-121.358;2022-07-30T04:14:52;2.90;;;2.60;;
49784;SDS011;35679;38.732;-121.358;2022-07-30T04:17:46;2.72;;;2.53;;
49784;SDS011;35679;38.732;-121.358;2022-07-30T04:20:39;4.57;;;2.42;;
49784;SDS011;35679;38.732;-121.358;2022-07-30T04:23:31;2.70;;;2.50;;
49784;SDS011;35679;38.732;-121.358;2022-07-30T04:26:41;2.50;;;2.30;;
49784;SDS011;35679;38.732;-121.358;2022-07-30T04:29:31;5.57;;;2.80;;
49784;SDS011;35679;38.732;-121.358;2022-07-30T04:32:21;2.97;;;2.72;;
49784;SDS011;35679;38.732;-121.358;2022-07-30T04:35:26;2.50;;;2.30;;
49784;SDS011;35679;38.732;-121.358;2022-07-30T04:38:53;2.60;;;2.40;;
49784;SDS011;35679;38.732;-121.358;2022-07-30T04:41:43;3.20;;;2.90;;
49784;SDS011;35679;38.732;-121.358;2022-07-30T04:44:55;2.85;;;2.50;;
49784;SDS011;35679;38.732;-121.358;2022-07-30T04:47:53;4.38;;;2.80;;
49784;SDS011;35679;38.732;-121.358;2022-07-30T04:50:52;4.10;;;2.67;;
49784;SDS011;35679;38.732;-121.358;2022-07-30T04:53:45;4.97;;;2.80;;
49784;SDS011;35679;38.732;-121.358;2022-07-30T04:56:38;2.67;;;2.47;;
49784;SDS011;35679;38.732;-121.358;2022-07-30T05:02:29;3.42;;;2.60;;
49784;SDS011;35679;38.732;-121.358;2022-07-30T05:05:21;2.80;;;2.43;;
49784;SDS011;35679;38.732;-121.358;2022-07-30T05:08:13;2.80;;;2.53;;
49784;SDS011;35679;38.732;-121.358;2022-07-30T05:11:03;3.80;;;2.72;;
49784;SDS011;35679;38.732;-121.358;2022-07-30T05:13:52;2.63;;;2.42;;
49784;SDS011;35679;38.732;-121.358;2022-07-30T05:16:41;2.85;;;2.65;;
49784;SDS011;35679;38.732;-121.358;2022-07-30T05:19:31;2.85;;;2.60;;
49784;SDS011;35679;38.732;-121.358;2022-07-30T05:22:21;3.00;;;2.80;;
49784;SDS011;35679;38.732;-121.358;2022-07-30T05:25:12;4.40;;;3.03;;
49784;SDS011;35679;38.732;-121.358;2022-07-30T05:28:04;2.90;;;2.45;;
49784;SDS011;35679;38.732;-121.358;2022-07-30T05:30:55;3.05;;;2.60;;
49784;SDS011;35679;38.732;-121.358;2022-07-30T05:33:45;2.72;;;2.47;;
49784;SDS011;35679;38.732;-121.358;2022-07-30T05:36:37;4.13;;;2.45;;
49784;SDS011;35679;38.732;-121.358;2022-07-30T05:39:30;2.90;;;2.50;;
49784;SDS011;35679;38.732;-121.358;2022-07-30T05:42:41;3.40;;;2.40;;
49784;SDS011;35679;38.732;-121.358;2022-07-30T05:45:30;2.70;;;2.50;;
49784;SDS011;35679;38.732;-121.358;2022-07-30T05:48:20;2.90;;;2.55;;
49784;SDS011;35679;38.732;-121.358;2022-07-30T05:51:09;11.95;;;2.80;;
49784;SDS011;35679;38.732;-121.358;2022-07-30T05:53:59;2.50;;;2.30;;
49784;SDS011;35679;38.732;-121.358;2022-07-30T05:56:48;5.30;;;2.65;;
49784;SDS011;35679;38.732;-121.358;2022-07-30T05:59:48;3.47;;;2.35;;
49784;SDS011;35679;38.732;-121.358;2022-07-30T06:03:02;2.45;;;2.25;;
49784;SDS011;35679;38.732;-121.358;2022-07-30T06:06:10;2.78;;;2.55;;
49784;SDS011;35679;38.732;-121.358;2022-07-30T06:08:59;4.03;;;2.67;;
49784;SDS011;35679;38.732;-121.358;2022-07-30T06:11:48;3.33;;;2.40;;
49784;SDS011;35679;38.732;-121.358;2022-07-30T06:14:38;4.43;;;2.88;;
49784;SDS011;35679;38.732;-121.358;2022-07-30T06:17:31;2.63;;;2.42;;
49784;SDS011;35679;38.732;-121.358;2022-07-30T06:20:39;2.65;;;2.45;;
49784;SDS011;35679;38.732;-121.358;2022-07-30T06:23:46;2.58;;;2.38;;
49784;SDS011;35679;38.732;-121.358;2022-07-30T06:26:54;5.00;;;2.60;;
49784;SDS011;35679;38.732;-121.358;2022-07-30T06:29:44;2.88;;;2.58;;
49784;SDS011;35679;38.732;-121.358;2022-07-30T06:32:34;3.45;;;2.50;;
49784;SDS011;35679;38.732;-121.358;2022-07-30T06:35:25;3.38;;;2.90;;
49784;SDS011;35679;38.732;-121.358;2022-07-30T06:38:14;2.72;;;2.53;;
49784;SDS011;35679;38.732;-121.358;2022-07-30T06:41:16;2.50;;;2.30;;
49784;SDS011;35679;38.732;-121.358;2022-07-30T06:44:11;3.33;;;2.53;;
49784;SDS011;35679;38.732;-121.358;2022-07-30T06:47:23;2.65;;;2.45;;
49784;SDS011;35679;38.732;-121.358;2022-07-30T06:50:17;3.38;;;2.53;;
49784;SDS011;35679;38.732;-121.358;2022-07-30T06:53:07;3.20;;;2.58;;
49784;SDS011;35679;38.732;-121.358;2022-07-30T06:56:17;3.50;;;2.70;;
49784;SDS011;35679;38.732;-121.358;2022-07-30T06:59:10;4.13;;;2.38;;
49784;SDS011;35679;38.732;-121.358;2022-07-30T07:02:09;2.50;;;2.30;;
49784;SDS011;35679;38.732;-121.358;2022-07-30T07:05:15;3.13;;;2.40;;
49784;SDS011;35679;38.732;-121.358;2022-07-30T07:08:07;2.50;;;2.30;;
49784;SDS011;35679;38.732;-121.358;2022-07-30T07:11:02;2.50;;;2.30;;
49784;SDS011;35679;38.732;-121.358;2022-07-30T07:14:00;2.70;;;2.50;;
49784;SDS011;35679;38.732;-121.358;2022-07-30T07:16:55;2.67;;;2.47;;
49784;SDS011;35679;38.732;-121.358;2022-07-30T07:20:04;3.30;;;2.40;;
49784;SDS011;35679;38.732;-121.358;2022-07-30T07:23:05;2.40;;;2.20;;
49784;SDS011;35679;38.732;-121.358;2022-07-30T07:25:59;2.90;;;2.50;;
49784;SDS011;35679;38.732;-121.358;2022-07-30T07:28:49;2.30;;;2.13;;
49784;SDS011;35679;38.732;-121.358;2022-07-30T07:31:40;2.33;;;2.13;;
49784;SDS011;35679;38.732;-121.358;2022-07-30T07:34:49;2.47;;;2.28;;
49784;SDS011;35679;38.732;-121.358;2022-07-30T07:37:39;3.80;;;2.30;;
49784;SDS011;35679;38.732;-121.358;2022-07-30T07:40:35;2.50;;;2.30;;
49784;SDS011;35679;38.732;-121.358;2022-07-30T07:43:24;2.83;;;2.63;;
49784;SDS011;35679;38.732;-121.358;2022-07-30T07:49:22;3.15;;;2.30;;
49784;SDS011;35679;38.732;-121.358;2022-07-30T07:52:11;3.10;;;2.60;;
49784;SDS011;35679;38.732;-121.358;2022-07-30T07:55:02;2.70;;;2.50;;
49784;SDS011;35679;38.732;-121.358;2022-07-30T07:57:54;3.00;;;2.35;;
49784;SDS011;35679;38.732;-121.358;2022-07-30T08:00:43;3.28;;;2.40;;
49784;SDS011;35679;38.732;-121.358;2022-07-30T08:03:33;2.63;;;2.15;;
49784;SDS011;35679;38.732;-121.358;2022-07-30T08:06:36;2.03;;;1.92;;
49784;SDS011;35679;38.732;-121.358;2022-07-30T08:09:48;2.60;;;2.17;;
49784;SDS011;35679;38.732;-121.358;2022-07-30T08:12:52;2.50;;;2.30;;
49784;SDS011;35679;38.732;-121.358;2022-07-30T08:16:01;2.47;;;2.28;;
49784;SDS011;35679;38.732;-121.358;2022-07-30T08:19:20;2.50;;;2.30;;
49784;SDS011;35679;38.732;-121.358;2022-07-30T08:22:26;2.40;;;2.20;;
49784;SDS011;35679;38.732;-121.358;2022-07-30T08:25:16;2.50;;;2.30;;
49784;SDS011;35679;38.732;-121.358;2022-07-30T08:28:11;2.38;;;2.17;;
49784;SDS011;35679;38.732;-121.358;2022-07-30T08:31:22;2.65;;;2.42;;
49784;SDS011;35679;38.732;-121.358;2022-07-30T08:34:14;3.25;;;2.42;;
49784;SDS011;35679;38.732;-121.358;2022-07-30T08:37:14;3.72;;;2.50;;
49784;SDS011;35679;38.732;-121.358;2022-07-30T08:40:06;2.50;;;2.30;;
49784;SDS011;35679;38.732;-121.358;2022-07-30T08:43:08;2.60;;;2.40;;
49784;SDS011;35679;38.732;-121.358;2022-07-30T08:45:59;2.40;;;2.17;;
49784;SDS011;35679;38.732;-121.358;2022-07-30T08:49:02;2.63;;;2.42;;
49784;SDS011;35679;38.732;-121.358;2022-07-30T08:51:59;3.17;;;2.40;;
49784;SDS011;35679;38.732;-121.358;2022-07-30T08:54:59;2.63;;;2.42;;
49784;SDS011;35679;38.732;-121.358;2022-07-30T08:57:51;2.33;;;2.13;;
49784;SDS011;35679;38.732;-121.358;2022-07-30T09:00:41;3.10;;;2.25;;
49784;SDS011;35679;38.732;-121.358;2022-07-30T09:03:32;2.60;;;2.40;;
49784;SDS011;35679;38.732;-121.358;2022-07-30T09:06:31;2.97;;;2.35;;
49784;SDS011;35679;38.732;-121.358;2022-07-30T09:09:24;2.60;;;2.40;;
49784;SDS011;35679;38.732;-121.358;2022-07-30T09:15:22;2.85;;;2.55;;
49784;SDS011;35679;38.732;-121.358;2022-07-30T09:18:14;2.65;;;2.47;;
49784;SDS011;35679;38.732;-121.358;2022-07-30T09:24:34;2.45;;;2.20;;
49784;SDS011;35679;38.732;-121.358;2022-07-30T09:27:51;3.42;;;2.28;;
49784;SDS011;35679;38.732;-121.358;2022-07-30T09:31:01;3.00;;;2.60;;
49784;SDS011;35679;38.732;-121.358;2022-07-30T09:37:18;2.30;;;2.17;;
49784;SDS011;35679;38.732;-121.358;2022-07-30T09:40:48;2.78;;;2.58;;
49784;SDS011;35679;38.732;-121.358;2022-07-30T09:43:59;2.50;;;2.30;;
49784;SDS011;35679;38.732;-121.358;2022-07-30T09:46:57;2.45;;;2.25;;
49784;SDS011;35679;38.732;-121.358;2022-07-30T09:50:00;2.50;;;2.30;;
49784;SDS011;35679;38.732;-121.358;2022-07-30T09:53:04;2.80;;;2.40;;
49784;SDS011;35679;38.732;-121.358;2022-07-30T09:55:59;2.50;;;2.35;;
49784;SDS011;35679;38.732;-121.358;2022-07-30T09:58:50;2.60;;;2.40;;
49784;SDS011;35679;38.732;-121.358;2022-07-30T10:01:50;2.67;;;2.33;;
49784;SDS011;35679;38.732;-121.358;2022-07-30T10:05:13;2.50;;;2.40;;
49784;SDS011;35679;38.732;-121.358;2022-07-30T10:08:06;2.38;;;2.25;;
49784;SDS011;35679;38.732;-121.358;2022-07-30T10:11:10;2.50;;;2.40;;
49784;SDS011;35679;38.732;-121.358;2022-07-30T10:14:16;2.38;;;2.20;;
49784;SDS011;35679;38.732;-121.358;2022-07-30T10:17:19;2.40;;;2.30;;
49784;SDS011;35679;38.732;-121.358;2022-07-30T10:20:32;2.40;;;2.30;;
49784;SDS011;35679;38.732;-121.358;2022-07-30T10:23:50;2.50;;;2.30;;
49784;SDS011;35679;38.732;-121.358;2022-07-30T10:26:59;2.75;;;2.30;;
49784;SDS011;35679;38.732;-121.358;2022-07-30T10:30:16;2.30;;;2.20;;
49784;SDS011;35679;38.732;-121.358;2022-07-30T10:33:14;2.53;;;2.33;;
49784;SDS011;35679;38.732;-121.358;2022-07-30T10:36:25;2.28;;;2.17;;
49784;SDS011;35679;38.732;-121.358;2022-07-30T10:39:23;2.20;;;2.10;;
49784;SDS011;35679;38.732;-121.358;2022-07-30T10:48:52;2.35;;;2.25;;
49784;SDS011;35679;38.732;-121.358;2022-07-30T10:51:51;2.47;;;2.30;;
49784;SDS011;35679;38.732;-121.358;2022-07-30T10:54:44;2.35;;;2.25;;
49784;SDS011;35679;38.732;-121.358;2022-07-30T10:57:35;1.95;;;1.85;;
49784;SDS011;35679;38.732;-121.358;2022-07-30T11:01:11;2.25;;;2.15;;
49784;SDS011;35679;38.732;-121.358;2022-07-30T11:04:18;2.50;;;2.30;;
49784;SDS011;35679;38.732;-121.358;2022-07-30T11:23:34;2.40;;;2.30;;
49784;SDS011;35679;38.732;-121.358;2022-07-30T11:29:33;2.40;;;2.20;;
49784;SDS011;35679;38.732;-121.358;2022-07-30T11:32:37;2.67;;;2.47;;
49784;SDS011;35679;38.732;-121.358;2022-07-30T11:35:28;2.40;;;2.30;;
49784;SDS011;35679;38.732;-121.358;2022-07-30T11:38:22;2.30;;;2.20;;
49784;SDS011;35679;38.732;-121.358;2022-07-30T11:41:11;2.65;;;2.45;;
49784;SDS011;35679;38.732;-121.358;2022-07-30T11:47:28;2.38;;;2.28;;
49784;SDS011;35679;38.732;-121.358;2022-07-30T11:53:17;3.42;;;2.20;;
49784;SDS011;35679;38.732;-121.358;2022-07-30T11:56:08;2.60;;;2.45;;
49784;SDS011;35679;38.732;-121.358;2022-07-30T12:01:53;2.30;;;2.20;;
49784;SDS011;35679;38.732;-121.358;2022-07-30T12:04:44;2.40;;;2.30;;
49784;SDS011;35679;38.732;-121.358;2022-07-30T12:07:35;2.63;;;2.42;;
49784;SDS011;35679;38.732;-121.358;2022-07-30T12:10:25;2.45;;;2.35;;
49784;SDS011;35679;38.732;-121.358;2022-07-30T12:13:16;2.78;;;2.58;;
49784;SDS011;35679;38.732;-121.358;2022-07-30T12:16:29;2.55;;;2.45;;
49784;SDS011;35679;38.732;-121.358;2022-07-30T12:19:19;2.50;;;2.30;;
49784;SDS011;35679;38.732;-121.358;2022-07-30T12:22:09;2.40;;;2.20;;
49784;SDS011;35679;38.732;-121.358;2022-07-30T12:25:04;2.80;;;2.60;;
49784;SDS011;35679;38.732;-121.358;2022-07-30T12:27:56;4.75;;;2.95;;
49784;SDS011;35679;38.732;-121.358;2022-07-30T12:30:46;3.28;;;2.70;;
49784;SDS011;35679;38.732;-121.358;2022-07-30T12:33:37;2.83;;;2.58;;
49784;SDS011;35679;38.732;-121.358;2022-07-30T12:36:32;2.55;;;2.40;;
49784;SDS011;35679;38.732;-121.358;2022-07-30T12:39:24;3.00;;;2.80;;
49784;SDS011;35679;38.732;-121.358;2022-07-30T12:42:18;3.10;;;2.60;;
49784;SDS011;35679;38.732;-121.358;2022-07-30T12:45:08;4.53;;;2.33;;
49784;SDS011;35679;38.732;-121.358;2022-07-30T12:48:50;2.83;;;2.55;;
49784;SDS011;35679;38.732;-121.358;2022-07-30T12:52:09;3.15;;;2.40;;
49784;SDS011;35679;38.732;-121.358;2022-07-30T12:55:15;2.65;;;2.45;;
49784;SDS011;35679;38.732;-121.358;2022-07-30T12:58:05;3.55;;;2.50;;
49784;SDS011;35679;38.732;-121.358;2022-07-30T13:00:55;3.38;;;2.50;;
49784;SDS011;35679;38.732;-121.358;2022-07-30T13:03:46;2.80;;;2.60;;
49784;SDS011;35679;38.732;-121.358;2022-07-30T13:06:35;2.45;;;2.33;;
49784;SDS011;35679;38.732;-121.358;2022-07-30T13:09:26;2.75;;;2.55;;
49784;SDS011;35679;38.732;-121.358;2022-07-30T13:12:16;2.20;;;2.10;;
49784;SDS011;35679;38.732;-121.358;2022-07-30T13:15:06;2.50;;;2.40;;
49784;SDS011;35679;38.732;-121.358;2022-07-30T13:17:57;6.40;;;2.70;;
49784;SDS011;35679;38.732;-121.358;2022-07-30T13:20:47;3.05;;;2.10;;
49784;SDS011;35679;38.732;-121.358;2022-07-30T13:23:37;2.17;;;2.08;;
49784;SDS011;35679;38.732;-121.358;2022-07-30T13:26:29;2.30;;;2.20;;
49784;SDS011;35679;38.732;-121.358;2022-07-30T13:29:19;2.83;;;2.63;;
49784;SDS011;35679;38.732;-121.358;2022-07-30T13:32:10;2.50;;;2.30;;
49784;SDS011;35679;38.732;-121.358;2022-07-30T13:34:59;2.60;;;2.50;;
49784;SDS011;35679;38.732;-121.358;2022-07-30T13:37:52;2.55;;;2.35;;
49784;SDS011;35679;38.732;-121.358;2022-07-30T13:40:42;2.25;;;2.10;;
49784;SDS011;35679;38.732;-121.358;2022-07-30T13:43:32;2.20;;;2.10;;
49784;SDS011;35679;38.732;-121.358;2022-07-30T13:46:22;2.20;;;2.10;;
49784;SDS011;35679;38.732;-121.358;2022-07-30T13:49:13;2.30;;;2.20;;
49784;SDS011;35679;38.732;-121.358;2022-07-30T13:52:03;2.30;;;2.20;;
49784;SDS011;35679;38.732;-121.358;2022-07-30T13:54:54;2.28;;;2.17;;
49784;SDS011;35679;38.732;-121.358;2022-07-30T13:57:44;2.45;;;2.30;;
49784;SDS011;35679;38.732;-121.358;2022-07-30T14:00:36;2.40;;;2.30;;
49784;SDS011;35679;38.732;-121.358;2022-07-30T14:03:27;2.40;;;2.20;;
49784;SDS011;35679;38.732;-121.358;2022-07-30T14:06:20;2.17;;;2.08;;
49784;SDS011;35679;38.732;-121.358;2022-07-30T14:09:09;2.20;;;2.10;;
49784;SDS011;35679;38.732;-121.358;2022-07-30T14:12:00;2.08;;;1.98;;
49784;SDS011;35679;38.732;-121.358;2022-07-30T14:14:51;2.63;;;2.10;;
49784;SDS011;35679;38.732;-121.358;2022-07-30T14:17:41;2.30;;;1.90;;
49784;SDS011;35679;38.732;-121.358;2022-07-30T14:20:43;2.25;;;2.15;;
49784;SDS011;35679;38.732;-121.358;2022-07-30T14:23:35;2.10;;;2.00;;
49784;SDS011;35679;38.732;-121.358;2022-07-30T14:26:25;1.98;;;1.88;;
49784;SDS011;35679;38.732;-121.358;2022-07-30T14:29:23;2.40;;;2.20;;
49784;SDS011;35679;38.732;-121.358;2022-07-30T14:32:13;2.30;;;1.92;;
49784;SDS011;35679;38.732;-121.358;2022-07-30T14:35:04;5.30;;;2.40;;
49784;SDS011;35679;38.732;-121.358;2022-07-30T14:38:00;1.95;;;1.85;;
49784;SDS011;35679;38.732;-121.358;2022-07-30T14:40:51;2.83;;;2.20;;
49784;SDS011;35679;38.732;-121.358;2022-07-30T14:43:41;2.30;;;2.20;;
49784;SDS011;35679;38.732;-121.358;2022-07-30T14:46:31;4.13;;;2.60;;
49784;SDS011;35679;38.732;-121.358;2022-07-30T14:49:21;3.47;;;2.00;;
49784;SDS011;35679;38.732;-121.358;2022-07-30T14:52:12;4.80;;;2.40;;
49784;SDS011;35679;38.732;-121.358;2022-07-30T14:55:05;2.78;;;2.45;;
49784;SDS011;35679;38.732;-121.358;2022-07-30T14:57:57;2.30;;;2.20;;
49784;SDS011;35679;38.732;-121.358;2022-07-30T15:00:47;2.40;;;2.20;;
49784;SDS011;35679;38.732;-121.358;2022-07-30T15:03:37;2.55;;;2.25;;
49784;SDS011;35679;38.732;-121.358;2022-07-30T15:06:27;2.67;;;2.40;;
49784;SDS011;35679;38.732;-121.358;2022-07-30T15:09:18;2.30;;;2.10;;
49784;SDS011;35679;38.732;-121.358;2022-07-30T15:12:10;2.30;;;2.20;;
49784;SDS011;35679;38.732;-121.358;2022-07-30T15:15:10;2.42;;;2.33;;
49784;SDS011;35679;38.732;-121.358;2022-07-30T15:18:01;2.50;;;2.30;;
49784;SDS011;35679;38.732;-121.358;2022-07-30T15:20:51;4.63;;;2.38;;
49784;SDS011;35679;38.732;-121.358;2022-07-30T15:23:42;2.90;;;2.60;;
49784;SDS011;35679;38.732;-121.358;2022-07-30T15:26:33;6.10;;;2.55;;
49784;SDS011;35679;38.732;-121.358;2022-07-30T15:29:23;2.50;;;2.30;;
49784;SDS011;35679;38.732;-121.358;2022-07-30T15:32:17;2.67;;;2.47;;
49784;SDS011;35679;38.732;-121.358;2022-07-30T15:35:07;2.58;;;2.38;;
49784;SDS011;35679;38.732;-121.358;2022-07-30T15:38:01;3.28;;;2.25;;
49784;SDS011;35679;38.732;-121.358;2022-07-30T15:40:51;5.60;;;2.20;;
49784;SDS011;35679;38.732;-121.358;2022-07-30T15:43:41;2.55;;;2.35;;
49784;SDS011;35679;38.732;-121.358;2022-07-30T15:46:31;4.00;;;2.55;;
49784;SDS011;35679;38.732;-121.358;2022-07-30T15:49:21;3.67;;;2.40;;
49784;SDS011;35679;38.732;-121.358;2022-07-30T15:52:12;4.20;;;2.35;;
49784;SDS011;35679;38.732;-121.358;2022-07-30T15:55:03;2.20;;;2.03;;
49784;SDS011;35679;38.732;-121.358;2022-07-30T15:57:54;2.35;;;2.17;;
49784;SDS011;35679;38.732;-121.358;2022-07-30T16:00:46;4.95;;;2.47;;
49784;SDS011;35679;38.732;-121.358;2022-07-30T16:03:36;2.50;;;2.20;;
49784;SDS011;35679;38.732;-121.358;2022-07-30T16:06:26;2.20;;;2.00;;
49784;SDS011;35679;38.732;-121.358;2022-07-30T16:09:16;2.50;;;2.30;;
49784;SDS011;35679;38.732;-121.358;2022-07-30T16:12:07;2.65;;;2.20;;
49784;SDS011;35679;38.732;-121.358;2022-07-30T16:14:58;2.60;;;2.40;;
49784;SDS011;35679;38.732;-121.358;2022-07-30T16:17:49;2.15;;;2.05;;
49784;SDS011;35679;38.732;-121.358;2022-07-30T16:20:41;3.47;;;2.40;;
49784;SDS011;35679;38.732;-121.358;2022-07-30T16:23:30;3.30;;;2.60;;
49784;SDS011;35679;38.732;-121.358;2022-07-30T16:26:23;2.33;;;2.20;;
49784;SDS011;35679;38.732;-121.358;2022-07-30T16:29:12;2.58;;;2.30;;
49784;SDS011;35679;38.732;-121.358;2022-07-30T16:32:02;5.50;;;2.65;;
49784;SDS011;35679;38.732;-121.358;2022-07-30T16:34:52;9.70;;;3.20;;
49784;SDS011;35679;38.732;-121.358;2022-07-30T16:37:42;13.35;;;3.10;;
49784;SDS011;35679;38.732;-121.358;2022-07-30T16:40:33;10.82;;;2.72;;
49784;SDS011;35679;38.732;-121.358;2022-07-30T16:43:22;7.45;;;2.63;;
49784;SDS011;35679;38.732;-121.358;2022-07-30T16:46:12;14.38;;;2.95;;
49784;SDS011;35679;38.732;-121.358;2022-07-30T16:51:55;20.88;;;3.42;;
49784;SDS011;35679;38.732;-121.358;2022-07-30T16:54:45;7.40;;;2.95;;
49784;SDS011;35679;38.732;-121.358;2022-07-30T16:57:36;11.55;;;2.92;;
49784;SDS011;35679;38.732;-121.358;2022-07-30T17:00:26;5.97;;;2.90;;
49784;SDS011;35679;38.732;-121.358;2022-07-30T17:03:17;8.35;;;2.63;;
49784;SDS011;35679;38.732;-121.358;2022-07-30T17:06:08;6.30;;;2.20;;
49784;SDS011;35679;38.732;-121.358;2022-07-30T17:08:58;8.93;;;2.40;;
49784;SDS011;35679;38.732;-121.358;2022-07-30T17:11:48;7.80;;;2.50;;
49784;SDS011;35679;38.732;-121.358;2022-07-30T17:14:50;3.80;;;2.70;;
49784;SDS011;35679;38.732;-121.358;2022-07-30T17:17:40;12.50;;;2.72;;
49784;SDS011;35679;38.732;-121.358;2022-07-30T17:20:31;12.65;;;2.95;;
49784;SDS011;35679;38.732;-121.358;2022-07-30T17:23:21;7.68;;;2.65;;
49784;SDS011;35679;38.732;-121.358;2022-07-30T17:26:11;5.05;;;2.45;;
49784;SDS011;35679;38.732;-121.358;2022-07-30T17:29:03;3.65;;;2.50;;
49784;SDS011;35679;38.732;-121.358;2022-07-30T17:32:00;4.68;;;2.28;;
49784;SDS011;35679;38.732;-121.358;2022-07-30T17:34:50;7.88;;;2.75;;
49784;SDS011;35679;38.732;-121.358;2022-07-30T17:37:41;4.60;;;2.70;;
49784;SDS011;35679;38.732;-121.358;2022-07-30T17:40:31;3.75;;;2.67;;
49784;SDS011;35679;38.732;-121.358;2022-07-30T17:43:21;8.40;;;2.53;;
49784;SDS011;35679;38.732;-121.358;2022-07-30T17:46:10;7.57;;;2.55;;
49784;SDS011;35679;38.732;-121.358;2022-07-30T17:49:01;12.80;;;2.90;;